createdAt,value
2017-08-11T00:01:12.806Z,17.27
2017-08-11T00:03:40.301Z,17.18
2017-08-11T00:06:07.790Z,17.11
2017-08-11T00:08:35.252Z,17.09
2017-08-11T00:11:02.743Z,17.10
2017-08-11T00:13:30.205Z,17.17
2017-08-11T00:15:57.677Z,17.34
2017-08-11T00:18:25.137Z,17.51
2017-08-11T00:20:52.635Z,17.49
2017-08-11T00:23:20.230Z,17.42
2017-08-11T00:25:47.687Z,17.48
2017-08-11T00:28:15.138Z,17.49
2017-08-11T00:30:42.621Z,17.36
2017-08-11T00:33:10.070Z,17.26
2017-08-11T00:35:37.566Z,17.36
2017-08-11T00:38:05.017Z,17.44
2017-08-11T00:40:32.497Z,17.41
2017-08-11T00:42:59.969Z,17.40
2017-08-11T00:45:27.480Z,17.39
2017-08-11T00:47:54.968Z,17.50
2017-08-11T00:50:22.450Z,17.37
2017-08-11T00:52:49.941Z,17.26
2017-08-11T00:55:17.385Z,17.31
2017-08-11T00:57:44.861Z,17.23
2017-08-11T01:00:12.310Z,17.02
2017-08-11T01:02:39.801Z,17.01
2017-08-11T01:05:07.268Z,17.05
2017-08-11T01:07:34.770Z,17.22
2017-08-11T01:10:02.267Z,17.15
2017-08-11T01:12:29.763Z,17.07
2017-08-11T01:14:57.234Z,17.03
2017-08-11T01:17:24.721Z,17.08
2017-08-11T01:19:52.185Z,17.00
2017-08-11T01:22:19.679Z,16.94
2017-08-11T01:24:47.169Z,17.17
2017-08-11T01:27:14.637Z,17.24
2017-08-11T01:29:42.125Z,17.28
2017-08-11T01:32:09.572Z,17.13
2017-08-11T01:34:37.048Z,17.02
2017-08-11T01:37:04.549Z,16.98
2017-08-11T01:39:32.032Z,16.96
2017-08-11T01:41:59.498Z,16.95
2017-08-11T01:44:26.974Z,16.90
2017-08-11T01:46:54.430Z,16.95
2017-08-11T01:49:21.947Z,17.11
2017-08-11T01:51:50.353Z,17.05
2017-08-11T01:54:17.806Z,16.96
2017-08-11T01:56:45.295Z,16.88
2017-08-11T01:59:12.758Z,16.96
2017-08-11T02:01:40.240Z,17.03
2017-08-11T02:04:07.684Z,17.12
2017-08-11T02:06:35.153Z,17.12
2017-08-11T02:09:02.623Z,17.14
2017-08-11T02:11:30.139Z,17.06
2017-08-11T02:13:57.607Z,17.02
2017-08-11T02:16:25.080Z,17.08
2017-08-11T02:18:52.532Z,17.11
2017-08-11T02:21:20.026Z,16.94
2017-08-11T02:23:47.529Z,16.89
2017-08-11T02:26:14.986Z,17.01
2017-08-11T02:28:42.476Z,17.03
2017-08-11T02:31:09.953Z,16.98
2017-08-11T02:33:37.425Z,17.15
2017-08-11T02:36:04.918Z,17.25
2017-08-11T02:38:32.395Z,17.08
2017-08-11T02:40:59.878Z,16.89
2017-08-11T02:43:27.363Z,16.83
2017-08-11T02:45:54.829Z,16.75
2017-08-11T02:48:22.264Z,16.77
2017-08-11T02:50:49.747Z,16.81
2017-08-11T02:53:17.189Z,16.80
2017-08-11T02:55:44.685Z,16.77
2017-08-11T02:58:12.147Z,16.77
2017-08-11T03:00:39.643Z,16.81
2017-08-11T03:03:07.093Z,16.83
2017-08-11T03:05:34.596Z,16.79
2017-08-11T03:08:02.040Z,16.96
2017-08-11T03:10:29.517Z,17.10
2017-08-11T03:12:56.971Z,17.11
2017-08-11T03:15:24.569Z,17.22
2017-08-11T03:17:52.017Z,17.29
2017-08-11T03:20:19.465Z,17.33
2017-08-11T03:22:46.937Z,17.36
2017-08-11T03:25:14.463Z,17.42
2017-08-11T03:27:41.948Z,17.42
2017-08-11T03:30:09.441Z,17.36
2017-08-11T03:32:36.936Z,17.28
2017-08-11T03:35:04.431Z,17.23
2017-08-11T03:37:31.908Z,17.26
2017-08-11T03:39:59.403Z,17.30
2017-08-11T03:42:26.858Z,17.27
2017-08-11T03:44:54.355Z,17.26
2017-08-11T03:47:21.813Z,17.22
2017-08-11T03:49:49.294Z,17.17
2017-08-11T03:52:16.757Z,17.27
2017-08-11T03:54:44.221Z,17.30
2017-08-11T03:57:11.685Z,17.15
2017-08-11T03:59:39.166Z,17.04
2017-08-11T04:02:06.618Z,16.91
2017-08-11T04:04:34.104Z,16.85
2017-08-11T04:07:01.554Z,16.81
2017-08-11T04:09:29.091Z,16.73
2017-08-11T04:11:56.577Z,16.93
2017-08-11T04:14:24.038Z,17.06
2017-08-11T04:16:51.513Z,17.13
2017-08-11T04:19:18.998Z,17.18
2017-08-11T04:21:46.474Z,17.22
2017-08-11T04:24:13.935Z,17.26
2017-08-11T04:26:41.415Z,17.31
2017-08-11T04:29:08.911Z,17.27
2017-08-11T04:31:36.390Z,17.28
2017-08-11T04:34:03.866Z,17.35
2017-08-11T04:36:31.327Z,17.29
2017-08-11T04:38:58.802Z,17.15
2017-08-11T04:41:26.266Z,16.98
2017-08-11T04:43:53.754Z,16.88
2017-08-11T04:46:21.235Z,16.98
2017-08-11T04:48:48.725Z,16.98
2017-08-11T04:51:16.212Z,16.98
2017-08-11T04:53:43.686Z,17.04
2017-08-11T04:56:11.145Z,17.02
2017-08-11T04:58:38.642Z,16.98
2017-08-11T05:01:06.138Z,17.02
2017-08-11T05:03:33.591Z,17.05
2017-08-11T05:06:01.090Z,17.06
2017-08-11T05:08:28.558Z,17.13
2017-08-11T05:10:56.044Z,17.24
2017-08-11T05:13:23.518Z,17.30
2017-08-11T05:15:51.113Z,17.34
2017-08-11T05:18:18.578Z,17.30
2017-08-11T05:20:46.041Z,17.15
2017-08-11T05:23:13.529Z,17.13
2017-08-11T05:25:40.993Z,17.10
2017-08-11T05:28:09.692Z,17.07
2017-08-11T05:30:37.161Z,17.15
2017-08-11T05:33:04.657Z,17.22
2017-08-11T05:35:32.148Z,17.33
2017-08-11T05:37:59.655Z,17.39
2017-08-11T05:40:27.222Z,17.38
2017-08-11T05:42:54.715Z,17.33
2017-08-11T05:45:22.197Z,17.30
2017-08-11T05:47:49.686Z,17.29
2017-08-11T05:50:17.238Z,17.23
2017-08-11T05:52:44.690Z,17.22
2017-08-11T05:55:12.197Z,17.32
2017-08-11T05:57:39.679Z,17.38
2017-08-11T06:00:07.162Z,17.38
2017-08-11T06:02:34.685Z,17.39
2017-08-11T06:05:02.162Z,17.37
2017-08-11T06:07:29.662Z,17.27
2017-08-11T06:09:57.144Z,17.15
2017-08-11T06:12:24.681Z,17.22
2017-08-11T06:14:52.167Z,17.07
2017-08-11T06:17:19.691Z,17.09
2017-08-11T06:19:47.165Z,17.07
2017-08-11T06:22:14.646Z,17.02
2017-08-11T06:24:42.114Z,16.99
2017-08-11T06:27:09.761Z,17.08
2017-08-11T06:29:37.234Z,17.01
2017-08-11T06:32:04.701Z,17.12
2017-08-11T06:34:32.171Z,17.28
2017-08-11T06:36:59.662Z,17.23
2017-08-11T06:39:27.156Z,17.34
2017-08-11T06:41:54.614Z,17.44
2017-08-11T06:44:22.114Z,17.37
2017-08-11T06:46:49.590Z,17.42
2017-08-11T06:49:17.091Z,17.35
2017-08-11T06:51:44.551Z,17.36
2017-08-11T06:54:12.050Z,17.39
2017-08-11T06:56:40.111Z,17.40
2017-08-11T06:59:07.600Z,17.38
2017-08-11T07:01:35.097Z,17.47
2017-08-11T07:04:02.694Z,17.35
2017-08-11T07:06:30.163Z,17.36
2017-08-11T07:08:57.676Z,17.43
2017-08-11T07:11:25.207Z,17.35
2017-08-11T07:13:52.664Z,17.38
2017-08-11T07:16:20.159Z,17.52
2017-08-11T07:18:47.630Z,17.51
2017-08-11T07:21:15.128Z,17.50
2017-08-11T07:23:42.629Z,17.38
2017-08-11T07:26:10.121Z,17.32
2017-08-11T07:28:37.655Z,17.27
2017-08-11T07:31:05.106Z,17.26
2017-08-11T07:33:32.623Z,17.42
2017-08-11T07:36:00.085Z,17.49
2017-08-11T07:38:28.179Z,17.53
2017-08-11T07:40:55.684Z,17.65
2017-08-11T07:43:24.018Z,17.76
2017-08-11T07:45:52.506Z,17.84
2017-08-11T07:48:19.967Z,17.92
2017-08-11T07:50:47.444Z,17.91
2017-08-11T07:53:14.960Z,17.76
2017-08-11T07:55:42.488Z,17.73
2017-08-11T07:58:09.996Z,17.88
2017-08-11T08:00:37.503Z,17.97
2017-08-11T08:03:04.960Z,17.91
2017-08-11T08:05:32.462Z,18.10
2017-08-11T08:07:59.947Z,18.16
2017-08-11T08:10:27.447Z,18.21
2017-08-11T08:12:54.947Z,18.39
2017-08-11T08:15:22.445Z,18.48
2017-08-11T08:17:49.955Z,18.44
2017-08-11T08:20:18.285Z,18.28
2017-08-11T08:22:45.947Z,18.54
2017-08-11T08:25:13.426Z,18.49
2017-08-11T08:27:40.936Z,18.53
2017-08-11T08:30:08.409Z,18.57
2017-08-11T08:32:38.005Z,18.70
2017-08-11T08:35:05.487Z,18.58
2017-08-11T08:37:32.989Z,18.83
2017-08-11T08:40:00.507Z,18.83
2017-08-11T08:42:28.036Z,18.89
2017-08-11T08:44:55.522Z,18.93
2017-08-11T08:47:23.034Z,19.07
2017-08-11T08:49:50.506Z,19.02
2017-08-11T08:52:18.001Z,18.93
2017-08-11T08:54:45.458Z,18.95
2017-08-11T08:57:13.606Z,19.04
2017-08-11T08:59:41.072Z,18.99
2017-08-11T09:02:08.701Z,18.93
2017-08-11T09:04:36.818Z,18.87
2017-08-11T09:07:04.326Z,18.94
2017-08-11T09:09:32.135Z,18.96
2017-08-11T09:11:59.620Z,18.93
2017-08-11T09:14:27.119Z,18.91
2017-08-11T09:16:54.605Z,19.05
2017-08-11T09:19:22.110Z,19.00
2017-08-11T09:21:49.694Z,18.91
2017-08-11T09:24:28.854Z,19.08
2017-08-11T09:27:17.018Z,18.99
2017-08-11T09:29:56.173Z,18.83
2017-08-11T09:32:35.375Z,18.75
2017-08-11T09:35:14.547Z,18.87
2017-08-11T09:37:41.597Z,18.81
2017-08-11T09:40:09.090Z,18.79
2017-08-11T09:42:36.642Z,18.88
2017-08-11T09:45:04.126Z,18.94
2017-08-11T09:47:31.643Z,19.07
2017-08-11T09:49:59.133Z,18.98
2017-08-11T09:52:26.831Z,19.03
2017-08-11T09:54:54.333Z,19.19
2017-08-11T09:57:21.892Z,19.32
2017-08-11T09:59:49.385Z,19.33
2017-08-11T10:02:16.878Z,19.22
2017-08-11T10:04:44.383Z,19.28
2017-08-11T10:07:11.897Z,19.27
2017-08-11T10:09:39.423Z,19.20
2017-08-11T10:12:06.949Z,19.34
2017-08-11T10:14:34.530Z,19.37
2017-08-11T10:17:02.035Z,19.26
2017-08-11T10:19:29.512Z,19.04
2017-08-11T10:21:57.003Z,18.97
2017-08-11T10:24:24.492Z,18.82
2017-08-11T10:26:52.980Z,18.87
2017-08-11T10:29:20.444Z,18.88
2017-08-11T10:31:47.930Z,18.95
2017-08-11T10:34:15.417Z,19.15
2017-08-11T10:36:42.905Z,19.22
2017-08-11T10:39:10.381Z,19.07
2017-08-11T10:41:37.880Z,19.00
2017-08-11T10:44:05.365Z,18.94
2017-08-11T10:46:33.051Z,18.84
2017-08-11T10:49:00.538Z,18.84
2017-08-11T10:51:28.021Z,18.94
2017-08-11T10:53:55.587Z,19.01
2017-08-11T10:56:23.147Z,19.16
2017-08-11T10:58:50.674Z,19.26
2017-08-11T11:01:18.134Z,19.06
2017-08-11T11:03:45.614Z,19.04
2017-08-11T11:06:13.120Z,18.98
2017-08-11T11:08:40.573Z,19.08
2017-08-11T11:11:08.121Z,19.09
2017-08-11T11:13:35.577Z,19.10
2017-08-11T11:16:03.058Z,18.96
2017-08-11T11:18:30.563Z,18.89
2017-08-11T11:20:58.067Z,18.89
2017-08-11T11:23:25.521Z,19.00
2017-08-11T11:25:52.999Z,19.01
2017-08-11T11:28:20.578Z,19.08
2017-08-11T11:30:48.134Z,19.01
2017-08-11T11:33:15.643Z,18.93
2017-08-11T11:35:43.141Z,18.96
2017-08-11T11:38:10.668Z,19.02
2017-08-11T11:40:38.275Z,19.17
2017-08-11T11:43:05.841Z,19.08
2017-08-11T11:45:33.393Z,18.95
2017-08-11T11:48:00.942Z,18.91
2017-08-11T11:50:28.456Z,18.86
2017-08-11T11:52:55.936Z,18.94
2017-08-11T11:55:24.457Z,19.01
2017-08-11T11:57:51.905Z,19.06
2017-08-11T12:00:19.386Z,19.29
2017-08-11T12:02:46.842Z,19.44
2017-08-11T12:05:14.352Z,19.50
2017-08-11T12:07:41.843Z,19.51
2017-08-11T12:10:09.306Z,19.26
2017-08-11T12:12:36.843Z,19.10
2017-08-11T12:15:05.137Z,19.00
2017-08-11T12:17:32.635Z,19.02
2017-08-11T12:20:00.168Z,18.96
2017-08-11T12:22:27.718Z,19.07
2017-08-11T12:24:55.227Z,19.09
2017-08-11T12:27:22.703Z,19.12
2017-08-11T12:29:50.620Z,19.06
2017-08-11T12:32:18.080Z,18.97
2017-08-11T12:34:45.738Z,19.17
2017-08-11T12:37:13.233Z,19.27
2017-08-11T12:39:40.692Z,19.40
2017-08-11T12:42:08.164Z,19.41
2017-08-11T12:44:35.659Z,19.46
2017-08-11T12:47:03.155Z,19.41
2017-08-11T12:49:30.615Z,19.38
2017-08-11T12:51:58.089Z,19.34
2017-08-11T12:54:25.595Z,19.33
2017-08-11T12:56:53.125Z,19.39
2017-08-11T12:59:21.403Z,19.26
2017-08-11T13:01:48.881Z,19.18
2017-08-11T13:04:17.343Z,19.17
2017-08-11T13:06:44.858Z,19.13
2017-08-11T13:09:12.417Z,19.08
2017-08-11T13:11:39.916Z,19.04
2017-08-11T13:14:07.427Z,19.12
2017-08-11T13:16:34.941Z,19.00
2017-08-11T13:19:02.431Z,19.07
2017-08-11T13:23:56.673Z,19.09
2017-08-11T13:26:24.157Z,19.16
2017-08-11T13:28:52.433Z,19.02
2017-08-11T13:31:19.900Z,19.25
2017-08-11T13:33:47.387Z,19.25
2017-08-11T13:36:14.891Z,19.25
2017-08-11T13:38:42.345Z,19.40
2017-08-11T13:41:09.856Z,19.46
2017-08-11T13:43:37.342Z,19.45
2017-08-11T13:46:04.827Z,19.38
2017-08-11T13:48:32.285Z,19.41
2017-08-11T13:50:59.794Z,19.34
2017-08-11T13:53:27.237Z,19.40
2017-08-11T13:55:55.259Z,19.41
2017-08-11T13:58:22.712Z,19.29
2017-08-11T14:00:50.190Z,19.24
2017-08-11T14:03:17.707Z,19.30
2017-08-11T14:05:45.177Z,19.32
2017-08-11T14:08:12.700Z,19.34
2017-08-11T14:10:40.196Z,19.37
2017-08-11T14:13:07.702Z,19.39
2017-08-11T14:15:35.152Z,19.38
2017-08-11T14:18:02.630Z,19.47
2017-08-11T14:20:30.139Z,19.52
2017-08-11T14:22:57.650Z,19.56
2017-08-11T14:25:25.158Z,19.62
2017-08-11T14:27:53.170Z,19.50
2017-08-11T14:30:20.659Z,19.61
2017-08-11T14:32:48.118Z,19.56
2017-08-11T14:35:15.633Z,19.51
2017-08-11T14:37:43.173Z,19.57
2017-08-11T14:40:10.683Z,19.43
2017-08-11T14:42:38.153Z,19.33
2017-08-11T14:45:05.654Z,19.30
2017-08-11T14:47:33.284Z,19.42
2017-08-11T14:50:00.800Z,19.44
2017-08-11T14:52:28.316Z,19.56
2017-08-11T14:54:55.826Z,19.56
2017-08-11T14:57:23.362Z,19.43
2017-08-11T14:59:50.856Z,19.37
2017-08-11T15:02:18.315Z,19.38
2017-08-11T15:04:45.869Z,19.37
2017-08-11T15:07:13.363Z,19.40
2017-08-11T15:09:40.835Z,19.43
2017-08-11T15:12:08.284Z,19.37
2017-08-11T15:14:35.769Z,19.42
2017-08-11T15:17:03.230Z,19.43
2017-08-11T15:19:30.709Z,19.41
2017-08-11T15:21:58.162Z,19.42
2017-08-11T15:24:25.673Z,19.38
2017-08-11T15:26:53.211Z,19.36
2017-08-11T15:29:20.685Z,19.39
2017-08-11T15:31:48.182Z,19.30
2017-08-11T15:34:15.658Z,19.28
2017-08-11T15:36:43.178Z,19.27
2017-08-11T15:39:10.652Z,19.26
2017-08-11T15:41:38.127Z,19.21
2017-08-11T15:44:05.614Z,19.13
2017-08-11T15:46:33.088Z,19.06
2017-08-11T15:49:00.600Z,19.02
2017-08-11T15:51:28.915Z,19.00
2017-08-11T15:53:56.398Z,19.04
2017-08-11T15:56:23.861Z,19.09
2017-08-11T15:58:51.411Z,19.02
2017-08-11T16:01:19.838Z,18.93
2017-08-11T16:03:47.324Z,18.93
2017-08-11T16:06:14.830Z,18.98
2017-08-11T16:08:42.354Z,18.85
2017-08-11T16:11:09.857Z,18.77
2017-08-11T16:13:37.359Z,18.73
2017-08-11T16:16:04.877Z,18.68
2017-08-11T16:18:32.395Z,18.64
2017-08-11T16:21:00.767Z,18.75
2017-08-11T16:23:28.273Z,18.90
2017-08-11T16:25:55.770Z,19.02
2017-08-11T16:28:23.231Z,19.00
2017-08-11T16:30:50.747Z,18.97
2017-08-11T16:33:18.266Z,18.84
2017-08-11T16:35:45.742Z,18.89
2017-08-11T16:38:13.231Z,18.85
2017-08-11T16:40:40.691Z,18.84
2017-08-11T16:43:08.165Z,18.78
2017-08-11T16:45:35.655Z,18.70
2017-08-11T16:48:03.160Z,18.77
2017-08-11T16:50:30.669Z,18.76
2017-08-11T16:52:58.176Z,18.71
2017-08-11T16:55:25.998Z,18.68
2017-08-11T16:57:53.482Z,18.69
2017-08-11T17:00:20.962Z,18.67
2017-08-11T17:02:48.467Z,18.68
2017-08-11T17:05:15.937Z,18.66
2017-08-11T17:07:43.425Z,18.66
2017-08-11T17:10:10.915Z,18.72
2017-08-11T17:12:38.371Z,18.76
2017-08-11T17:15:05.925Z,18.65
2017-08-11T17:17:33.419Z,18.69
2017-08-11T17:20:00.894Z,18.69
2017-08-11T17:22:28.374Z,18.60
2017-08-11T17:24:55.832Z,18.52
2017-08-11T17:27:23.607Z,18.45
2017-08-11T17:29:51.101Z,18.42
2017-08-11T17:32:18.590Z,18.50
2017-08-11T17:34:46.774Z,18.49
2017-08-11T17:37:14.308Z,18.38
2017-08-11T17:39:41.843Z,18.31
2017-08-11T17:42:09.310Z,18.19
2017-08-11T17:44:36.810Z,18.17
2017-08-11T17:47:04.272Z,18.29
2017-08-11T17:49:31.770Z,18.18
2017-08-11T17:51:59.241Z,18.10
2017-08-11T17:54:26.729Z,18.05
2017-08-11T17:56:54.216Z,17.94
2017-08-11T17:59:21.676Z,17.90
2017-08-11T18:01:49.181Z,17.95
2017-08-11T18:04:16.645Z,17.86
2017-08-11T18:06:44.134Z,17.93
2017-08-11T18:09:11.611Z,17.98
2017-08-11T18:11:39.114Z,18.05
2017-08-11T18:14:06.601Z,18.08
2017-08-11T18:16:34.148Z,18.05
2017-08-11T18:19:01.651Z,18.13
2017-08-11T18:21:29.138Z,18.11
2017-08-11T18:23:56.597Z,18.12
2017-08-11T18:26:24.132Z,18.05
2017-08-11T18:28:51.629Z,18.17
2017-08-11T18:31:19.105Z,18.21
2017-08-11T18:33:46.614Z,18.26
2017-08-11T18:36:14.088Z,18.23
2017-08-11T18:38:41.574Z,18.23
2017-08-11T18:41:09.078Z,18.17
2017-08-11T18:43:36.603Z,18.11
2017-08-11T18:46:04.086Z,18.22
2017-08-11T18:48:31.726Z,18.15
2017-08-11T18:50:59.208Z,18.16
2017-08-11T18:53:26.669Z,18.18
2017-08-11T18:55:54.163Z,18.11
2017-08-11T18:58:21.627Z,18.00
2017-08-11T19:00:49.129Z,17.98
2017-08-11T19:03:16.590Z,17.99
2017-08-11T19:05:44.073Z,17.97
2017-08-11T19:08:11.567Z,18.01
2017-08-11T19:10:39.061Z,17.95
2017-08-11T19:13:06.550Z,17.85
2017-08-11T19:15:34.021Z,17.82
2017-08-11T19:18:01.506Z,17.74
2017-08-11T19:20:28.974Z,17.84
2017-08-11T19:22:56.473Z,17.71
2017-08-11T19:25:23.951Z,17.69
2017-08-11T19:27:51.468Z,17.75
2017-08-11T19:30:18.935Z,17.83
2017-08-11T19:32:46.434Z,17.92
2017-08-11T19:35:13.898Z,17.92
2017-08-11T19:37:41.398Z,17.83
2017-08-11T19:40:08.864Z,17.80
2017-08-11T19:42:36.382Z,17.86
2017-08-11T19:45:03.852Z,17.79
2017-08-11T19:47:31.371Z,17.66
2017-08-11T19:49:58.840Z,17.57
2017-08-11T19:52:26.343Z,17.59
2017-08-11T19:54:53.825Z,17.63
2017-08-11T19:57:21.283Z,17.71
2017-08-11T19:59:49.562Z,17.68
2017-08-11T20:02:17.048Z,17.68
2017-08-11T20:04:44.519Z,17.65
2017-08-11T20:07:12.039Z,17.62
2017-08-11T20:09:39.503Z,17.60
2017-08-11T20:12:06.998Z,17.58
2017-08-11T20:14:34.472Z,17.65
2017-08-11T20:17:01.966Z,17.63
2017-08-11T20:19:29.440Z,17.61
2017-08-11T20:21:56.940Z,17.59
2017-08-11T20:24:24.396Z,17.62
2017-08-11T20:26:51.898Z,17.51
2017-08-11T20:29:19.380Z,17.53
2017-08-11T20:31:46.887Z,17.57
2017-08-11T20:34:14.332Z,17.70
2017-08-11T20:36:41.827Z,17.68
2017-08-11T20:39:09.299Z,17.55
2017-08-11T20:41:36.785Z,17.45
2017-08-11T20:44:04.260Z,17.39
2017-08-11T20:46:31.762Z,17.42
2017-08-11T20:48:59.260Z,17.50
2017-08-11T20:51:26.771Z,17.52
2017-08-11T20:53:54.380Z,17.37
2017-08-11T20:56:21.837Z,17.27
2017-08-11T20:58:49.365Z,17.31
2017-08-11T21:01:16.861Z,17.45
2017-08-11T21:03:44.343Z,17.52
2017-08-11T21:06:11.840Z,17.66
2017-08-11T21:08:39.307Z,17.55
2017-08-11T21:11:06.805Z,17.47
2017-08-11T21:13:34.266Z,17.43
2017-08-11T21:16:01.814Z,17.37
2017-08-11T21:18:29.279Z,17.36
2017-08-11T21:20:56.772Z,17.33
2017-08-11T21:23:24.240Z,17.33
2017-08-11T21:25:51.721Z,17.34
2017-08-11T21:28:19.188Z,17.36
2017-08-11T21:30:46.686Z,17.34
2017-08-11T21:33:14.178Z,17.36
2017-08-11T21:35:41.632Z,17.35
2017-08-11T21:38:09.113Z,17.40
2017-08-11T21:40:36.621Z,17.40
2017-08-11T21:43:04.110Z,17.43
2017-08-11T21:45:31.606Z,17.44
2017-08-11T21:47:59.071Z,17.42
2017-08-11T21:50:26.548Z,17.41
2017-08-11T21:52:54.013Z,17.43
2017-08-11T21:55:21.481Z,17.40
2017-08-11T21:57:48.945Z,17.42
2017-08-11T22:00:16.434Z,17.46
2017-08-11T22:02:43.890Z,17.57
2017-08-11T22:05:11.424Z,17.57
2017-08-11T22:07:38.902Z,17.54
2017-08-11T22:10:06.487Z,17.52
2017-08-11T22:12:33.949Z,17.59
2017-08-11T22:15:01.443Z,17.58
2017-08-11T22:17:28.934Z,17.57
2017-08-11T22:19:56.428Z,17.61
2017-08-11T22:22:23.907Z,17.63
2017-08-11T22:24:51.423Z,17.68
2017-08-11T22:27:18.890Z,17.65
2017-08-11T22:29:46.373Z,17.60
2017-08-11T22:32:13.887Z,17.58
2017-08-11T22:34:42.377Z,17.56
2017-08-11T22:37:09.871Z,17.57
2017-08-11T22:39:37.406Z,17.51
2017-08-11T22:42:04.874Z,17.55
2017-08-11T22:44:32.456Z,17.60
2017-08-11T22:46:59.905Z,17.58
2017-08-11T22:49:27.381Z,17.53
2017-08-11T22:51:54.882Z,17.49
2017-08-11T22:54:22.388Z,17.54
2017-08-11T22:56:49.878Z,17.43
2017-08-11T22:59:17.352Z,17.53
2017-08-11T23:01:44.862Z,17.51
2017-08-11T23:04:12.329Z,17.48
2017-08-11T23:06:40.290Z,17.41
2017-08-11T23:09:07.749Z,17.47
2017-08-11T23:11:35.258Z,17.49
2017-08-11T23:14:02.779Z,17.55
2017-08-11T23:16:30.253Z,17.45
2017-08-11T23:18:57.748Z,17.42
2017-08-11T23:21:25.218Z,17.44
2017-08-11T23:23:52.710Z,17.49
2017-08-11T23:26:20.185Z,17.46
2017-08-11T23:28:47.677Z,17.42
2017-08-11T23:31:15.168Z,17.42
2017-08-11T23:33:42.680Z,17.37
2017-08-11T23:36:10.164Z,17.39
2017-08-11T23:38:37.653Z,17.38
2017-08-11T23:41:05.185Z,17.31
2017-08-11T23:43:32.653Z,17.33
2017-08-11T23:46:00.140Z,17.43
2017-08-11T23:48:27.604Z,17.48
2017-08-11T23:50:55.081Z,17.51
2017-08-11T23:53:22.564Z,17.45
2017-08-11T23:55:50.013Z,17.33
2017-08-11T23:58:17.492Z,17.28
